createdAt,value
2022-08-07T00:00:25.652Z,14.81
2022-08-07T00:02:53.465Z,14.78
2022-08-07T00:05:23.716Z,14.46
2022-08-07T00:07:58.326Z,14.48
2022-08-07T00:10:29.682Z,14.41
2022-08-07T00:13:17.467Z,14.41
2022-08-07T00:15:52.104Z,14.31
2022-08-07T00:18:24.446Z,14.38
2022-08-07T00:21:07.894Z,14.23
2022-08-07T00:23:53.061Z,14.24
2022-08-07T00:26:59.416Z,14.12
2022-08-07T00:29:06.746Z,14.09
2022-08-07T00:31:37.288Z,14.03
2022-08-07T00:34:08.736Z,14.03
2022-08-07T00:36:38.568Z,14.13
2022-08-07T00:39:12.897Z,14.12
2022-08-07T00:41:53.616Z,14.12
2022-08-07T00:44:28.043Z,14.03
2022-08-07T00:46:55.471Z,14.02
2022-08-07T00:49:24.937Z,13.80
2022-08-07T00:52:11.089Z,13.70
2022-08-07T00:54:40.708Z,13.63
2022-08-07T00:57:09.233Z,13.51
2022-08-07T00:59:39.104Z,13.46
2022-08-07T01:02:14.070Z,13.39
2022-08-07T01:04:54.672Z,13.25
2022-08-07T01:07:25.360Z,13.38
2022-08-07T01:10:05.935Z,13.51
2022-08-07T01:12:36.795Z,13.54
2022-08-07T01:15:07.600Z,13.53
2022-08-07T01:17:40.012Z,13.44
2022-08-07T01:20:10.523Z,13.29
2022-08-07T01:22:54.042Z,13.25
2022-08-07T01:25:54.479Z,13.20
2022-08-07T01:28:19.554Z,13.29
2022-08-07T01:30:52.785Z,13.41
2022-08-07T01:33:22.585Z,13.51
2022-08-07T01:35:53.391Z,13.54
2022-08-07T01:38:25.221Z,13.62
2022-08-07T01:40:58.850Z,13.69
2022-08-07T01:43:38.158Z,13.55
2022-08-07T01:46:08.353Z,13.65
2022-08-07T01:48:46.779Z,13.57
2022-08-07T01:52:03.239Z,13.71
2022-08-07T01:54:32.629Z,13.76
2022-08-07T01:57:08.228Z,13.63
2022-08-07T01:59:43.676Z,13.86
2022-08-07T02:03:18.274Z,13.82
2022-08-07T02:05:47.891Z,13.75
2022-08-07T02:08:26.831Z,13.76
2022-08-07T02:10:58.060Z,13.83
2022-08-07T02:13:57.260Z,13.91
2022-08-07T02:16:19.738Z,13.80
2022-08-07T02:18:51.263Z,13.58
2022-08-07T02:21:19.491Z,13.78
2022-08-07T02:23:46.331Z,13.88
2022-08-07T02:26:32.504Z,13.78
2022-08-07T02:29:02.923Z,13.84
2022-08-07T02:31:32.568Z,13.98
2022-08-07T02:34:11.098Z,13.83
2022-08-07T02:36:45.968Z,13.62
2022-08-07T02:39:43.783Z,13.80
2022-08-07T02:42:10.117Z,13.72
2022-08-07T02:44:45.768Z,13.88
2022-08-07T02:47:19.441Z,13.95
2022-08-07T02:49:56.486Z,13.72
2022-08-07T02:52:39.543Z,13.70
2022-08-07T02:55:27.760Z,13.50
2022-08-07T02:58:04.837Z,13.65
2022-08-07T03:00:34.088Z,13.68
2022-08-07T03:03:06.036Z,13.80
2022-08-07T03:05:37.864Z,13.81
2022-08-07T03:08:10.056Z,13.75
2022-08-07T03:10:46.425Z,13.76
2022-08-07T03:13:19.339Z,13.74
2022-08-07T03:15:56.697Z,13.82
2022-08-07T03:18:34.953Z,13.78
2022-08-07T03:21:08.412Z,13.80
2022-08-07T03:24:20.196Z,13.82
2022-08-07T03:26:33.206Z,13.79
2022-08-07T03:29:10.534Z,13.85
2022-08-07T03:31:46.343Z,13.92
2022-08-07T03:34:18.809Z,13.85
2022-08-07T03:36:51.900Z,13.71
2022-08-07T03:39:56.570Z,13.69
2022-08-07T03:42:07.743Z,13.73
2022-08-07T03:44:37.046Z,13.83
2022-08-07T03:47:13.522Z,13.83
2022-08-07T03:49:52.132Z,13.80
2022-08-07T03:52:26.533Z,13.76
2022-08-07T03:55:06.495Z,13.76
2022-08-07T03:58:34.143Z,13.62
2022-08-07T04:00:33.673Z,13.49
2022-08-07T04:03:04.402Z,13.37
2022-08-07T04:05:40.603Z,13.52
2022-08-07T04:08:16.299Z,13.56
2022-08-07T04:10:54.617Z,13.61
2022-08-07T04:14:09.873Z,13.64
2022-08-07T04:16:31.435Z,13.63
2022-08-07T04:19:03.811Z,13.69
2022-08-07T04:21:33.403Z,13.65
2022-08-07T04:24:07.573Z,13.60
2022-08-07T04:26:40.902Z,13.57
2022-08-07T04:29:11.143Z,13.35
2022-08-07T04:32:09.791Z,13.23
2022-08-07T04:34:33.071Z,13.27
2022-08-07T04:37:01.758Z,13.36
2022-08-07T04:39:35.939Z,13.31
2022-08-07T04:42:04.571Z,13.38
2022-08-07T04:44:33.099Z,13.35
2022-08-07T04:47:09.022Z,13.38
2022-08-07T04:49:57.543Z,13.48
2022-08-07T04:52:50.943Z,13.59
2022-08-07T04:58:12.864Z,13.62
2022-08-07T05:01:50.647Z,13.68
2022-08-07T05:04:24.476Z,13.75
2022-08-07T05:07:09.670Z,13.77
2022-08-07T05:09:59.787Z,13.87
2022-08-07T05:12:46.204Z,13.92
2022-08-07T05:15:25.590Z,13.99
2022-08-07T05:18:08.568Z,14.05
2022-08-07T05:20:51.364Z,14.09
2022-08-07T05:23:29.863Z,14.16
2022-08-07T05:26:13.221Z,14.25
2022-08-07T05:28:50.727Z,14.14
2022-08-07T05:31:24.121Z,14.20
2022-08-07T05:34:05.541Z,14.22
2022-08-07T05:36:39.089Z,14.36
2022-08-07T05:40:17.842Z,14.39
2022-08-07T05:42:04.550Z,14.39
2022-08-07T05:44:37.379Z,14.45
2022-08-07T05:47:19.947Z,14.38
2022-08-07T05:49:51.110Z,14.33
2022-08-07T05:52:29.902Z,14.38
2022-08-07T05:55:07.239Z,14.37
2022-08-07T05:57:42.170Z,14.44
2022-08-07T06:00:16.610Z,14.57
2022-08-07T06:02:53.912Z,14.67
2022-08-07T06:05:25.856Z,14.66
2022-08-07T06:08:14.885Z,14.76
2022-08-07T06:10:46.897Z,14.60
2022-08-07T06:13:18.643Z,14.55
2022-08-07T06:15:49.805Z,14.60
2022-08-07T06:18:22.295Z,14.57
2022-08-07T06:22:14.979Z,14.67
2022-08-07T06:24:38.124Z,14.77
2022-08-07T06:26:30.607Z,14.94
2022-08-07T06:29:01.362Z,15.14
2022-08-07T06:31:38.399Z,15.32
2022-08-07T06:34:14.093Z,15.26
2022-08-07T06:36:42.116Z,15.36
2022-08-07T06:40:16.204Z,15.43
2022-08-07T06:42:05.944Z,15.36
2022-08-07T06:45:11.316Z,15.47
2022-08-07T06:47:57.429Z,15.30
2022-08-07T06:50:30.406Z,15.14
2022-08-07T06:52:59.684Z,15.11
2022-08-07T06:55:53.788Z,15.24
2022-08-07T06:58:21.510Z,15.72
2022-08-07T07:00:58.319Z,15.82
2022-08-07T07:03:39.768Z,15.79
2022-08-07T07:06:12.695Z,15.69
2022-08-07T07:08:39.839Z,15.62
2022-08-07T07:12:07.673Z,15.79
2022-08-07T07:14:02.703Z,15.81
2022-08-07T07:16:34.144Z,15.78
2022-08-07T07:19:55.203Z,15.85
2022-08-07T07:22:12.086Z,15.87
2022-08-07T07:25:02.392Z,15.90
2022-08-07T07:27:35.754Z,16.09
2022-08-07T07:30:28.355Z,16.20
2022-08-07T07:33:01.815Z,16.39
2022-08-07T07:35:33.521Z,16.54
2022-08-07T07:38:02.204Z,16.57
2022-08-07T07:40:30.961Z,16.69
2022-08-07T07:42:58.118Z,16.63
2022-08-07T07:46:37.922Z,16.69
2022-08-07T07:48:36.162Z,16.70
2022-08-07T07:51:08.442Z,16.73
2022-08-07T07:53:51.229Z,16.91
2022-08-07T07:56:29.713Z,16.83
2022-08-07T07:58:59.034Z,16.77
2022-08-07T08:02:03.022Z,16.78
2022-08-07T08:04:14.923Z,17.07
2022-08-07T08:06:50.761Z,16.97
2022-08-07T08:09:22.703Z,17.19
2022-08-07T08:12:02.986Z,17.22
2022-08-07T08:14:34.162Z,17.19
2022-08-07T08:17:55.534Z,17.28
2022-08-07T08:20:17.329Z,17.23
2022-08-07T08:23:00.590Z,17.58
2022-08-07T08:25:49.701Z,17.59
2022-08-07T08:28:24.055Z,17.46
2022-08-07T08:31:05.660Z,17.90
2022-08-07T08:33:37.113Z,17.93
2022-08-07T08:36:06.929Z,17.99
2022-08-07T08:38:41.262Z,18.17
2022-08-07T08:41:19.309Z,18.05
2022-08-07T08:44:03.259Z,17.99
2022-08-07T08:47:09.765Z,18.21
2022-08-07T08:49:46.917Z,18.03
2022-08-07T08:52:40.602Z,18.06
2022-08-07T08:55:55.309Z,17.86
2022-08-07T08:58:54.434Z,17.84
2022-08-07T09:01:43.849Z,17.79
2022-08-07T09:04:28.809Z,17.73
2022-08-07T09:07:03.391Z,17.86
2022-08-07T09:09:44.679Z,18.05
2022-08-07T09:12:31.891Z,18.25
2022-08-07T09:16:20.166Z,18.49
2022-08-07T09:18:30.466Z,18.57
2022-08-07T09:21:06.541Z,18.62
2022-08-07T09:24:32.871Z,18.77
2022-08-07T09:26:56.975Z,18.87
2022-08-07T09:30:04.216Z,19.03
2022-08-07T09:32:40.348Z,19.22
2022-08-07T09:36:04.300Z,19.40
2022-08-07T09:38:50.241Z,19.32
2022-08-07T09:42:02.967Z,19.08
2022-08-07T09:47:25.813Z,19.10
2022-08-07T09:48:29.845Z,19.04
2022-08-07T09:52:16.462Z,19.09
2022-08-07T09:54:41.828Z,19.09
2022-08-07T09:57:50.095Z,19.00
2022-08-07T10:00:24.404Z,19.13
2022-08-07T10:04:05.724Z,19.04
2022-08-07T10:06:27.554Z,19.16
2022-08-07T10:10:00.292Z,19.13
2022-08-07T10:12:52.884Z,19.15
2022-08-07T10:15:37.594Z,18.98
2022-08-07T10:18:19.883Z,18.96
2022-08-07T10:21:19.824Z,19.31
2022-08-07T10:24:28.647Z,19.56
2022-08-07T10:27:10.261Z,19.69
2022-08-07T10:30:06.493Z,19.83
2022-08-07T10:33:12.968Z,19.84
2022-08-07T10:36:05.509Z,19.59
2022-08-07T10:38:59.116Z,19.64
2022-08-07T10:41:51.893Z,19.65
2022-08-07T10:44:33.882Z,19.62
2022-08-07T10:47:11.951Z,19.63
2022-08-07T10:49:50.956Z,19.82
2022-08-07T10:52:48.679Z,19.91
2022-08-07T10:55:37.653Z,20.02
2022-08-07T10:58:36.392Z,19.88
2022-08-07T11:01:51.929Z,20.11
2022-08-07T11:05:10.708Z,20.47
2022-08-07T11:07:59.105Z,20.54
2022-08-07T11:10:57.954Z,20.39
2022-08-07T11:14:43.941Z,20.46
2022-08-07T11:16:39.482Z,20.91
2022-08-07T11:19:34.328Z,21.04
2022-08-07T11:22:18.952Z,20.64
2022-08-07T11:25:09.790Z,20.63
2022-08-07T11:28:02.925Z,20.67
2022-08-07T11:30:52.499Z,20.45
2022-08-07T11:33:48.755Z,20.49
2022-08-07T11:36:25.403Z,21.09
2022-08-07T11:39:58.981Z,21.18
2022-08-07T11:42:21.281Z,21.23
2022-08-07T11:44:59.287Z,21.43
2022-08-07T11:47:56.251Z,21.60
2022-08-07T11:50:31.824Z,21.76
2022-08-07T11:53:16.930Z,21.64
2022-08-07T11:56:15.565Z,21.76
2022-08-07T12:00:08.196Z,21.61
2022-08-07T12:02:31.800Z,22.11
2022-08-07T12:05:28.746Z,21.97
2022-08-07T12:08:31.591Z,21.98
2022-08-07T12:11:20.811Z,22.09
2022-08-07T12:14:16.449Z,22.19
2022-08-07T12:16:54.025Z,22.41
2022-08-07T12:20:03.244Z,22.48
2022-08-07T12:23:09.081Z,22.41
2022-08-07T12:26:05.800Z,22.42
2022-08-07T12:29:07.839Z,22.61
2022-08-07T12:32:02.129Z,22.73
2022-08-07T12:34:33.866Z,22.72
2022-08-07T12:37:01.427Z,23.06
2022-08-07T12:39:44.121Z,22.72
2022-08-07T12:42:22.834Z,22.67
2022-08-07T12:44:55.179Z,23.13
2022-08-07T12:47:27.133Z,23.65
2022-08-07T12:50:04.934Z,23.97
2022-08-07T12:53:18.062Z,24.05
2022-08-07T12:56:10.219Z,24.61
2022-08-07T12:58:40.137Z,24.44
2022-08-07T13:01:32.977Z,24.12
2022-08-07T13:04:34.035Z,24.90
2022-08-07T13:08:12.199Z,25.01
2022-08-07T13:10:44.042Z,25.39
2022-08-07T13:13:47.254Z,25.29
2022-08-07T13:16:38.035Z,25.93
2022-08-07T13:19:22.062Z,25.67
2022-08-07T13:22:19.993Z,26.30
2022-08-07T13:25:00.672Z,26.49
2022-08-07T13:28:13.809Z,26.74
2022-08-07T13:30:43.995Z,27.30
2022-08-07T13:34:30.241Z,28.56
2022-08-07T13:36:30.869Z,28.89
2022-08-07T13:39:04.935Z,28.82
2022-08-07T13:41:47.589Z,28.56
2022-08-07T13:44:26.155Z,27.88
2022-08-07T13:46:57.658Z,28.67
2022-08-07T13:50:33.801Z,28.42
2022-08-07T13:52:32.078Z,28.84
2022-08-07T13:55:07.111Z,28.60
2022-08-07T13:57:38.096Z,29.63
2022-08-07T14:00:26.455Z,28.36
2022-08-07T14:02:56.282Z,28.63
2022-08-07T14:05:24.944Z,28.75
2022-08-07T14:08:05.009Z,28.34
2022-08-07T14:10:41.704Z,29.86
2022-08-07T14:13:12.986Z,30.22
2022-08-07T14:15:44.739Z,28.64
2022-08-07T14:18:57.273Z,30.12
2022-08-07T14:22:04.009Z,30.18
2022-08-07T14:24:27.081Z,29.79
2022-08-07T14:27:01.957Z,30.23
2022-08-07T14:30:06.730Z,30.30
2022-08-07T14:32:46.030Z,28.54
2022-08-07T14:35:44.798Z,28.89
2022-08-07T14:38:26.438Z,28.38
2022-08-07T14:40:59.678Z,27.49
2022-08-07T14:43:57.180Z,27.60
2022-08-07T14:46:31.508Z,28.09
2022-08-07T14:49:55.967Z,28.02
2022-08-07T14:52:03.015Z,27.43
2022-08-07T14:54:35.823Z,27.95
2022-08-07T14:57:15.040Z,28.25
2022-08-07T15:00:05.238Z,27.89
2022-08-07T15:02:34.648Z,28.24
2022-08-07T15:05:03.782Z,28.22
2022-08-07T15:07:51.166Z,28.51
2022-08-07T15:10:26.360Z,29.11
2022-08-07T15:13:22.447Z,28.91
2022-08-07T15:15:58.056Z,28.17
2022-08-07T15:18:45.484Z,28.78
2022-08-07T15:21:59.444Z,28.99
2022-08-07T15:25:14.313Z,28.63
2022-08-07T15:27:23.141Z,28.98
2022-08-07T15:30:09.460Z,28.45
2022-08-07T15:33:01.303Z,29.64
2022-08-07T15:36:01.246Z,30.40
2022-08-07T15:38:31.184Z,30.92
2022-08-07T15:41:23.915Z,30.93
2022-08-07T15:44:00.792Z,30.79
2022-08-07T15:46:31.473Z,29.74
2022-08-07T15:49:15.264Z,29.14
2022-08-07T15:54:34.533Z,28.65
2022-08-07T15:57:03.362Z,29.47
2022-08-07T15:59:39.689Z,29.67
2022-08-07T16:02:22.176Z,30.25
2022-08-07T16:04:55.925Z,30.59
2022-08-07T16:08:32.989Z,31.07
2022-08-07T16:10:21.237Z,31.91
2022-08-07T16:13:17.986Z,32.32
2022-08-07T16:16:43.133Z,32.69
2022-08-07T16:19:59.675Z,32.52
2022-08-07T16:22:36.339Z,32.34
2022-08-07T16:25:54.692Z,33.51
2022-08-07T16:30:07.483Z,34.11
2022-08-07T16:31:57.397Z,33.29
2022-08-07T16:34:45.353Z,31.86
2022-08-07T16:38:05.786Z,31.80
2022-08-07T16:40:32.288Z,32.26
2022-08-07T16:43:18.480Z,32.53
2022-08-07T16:47:04.638Z,31.45
2022-08-07T16:50:20.583Z,32.87
2022-08-07T16:52:50.975Z,32.38
2022-08-07T16:55:16.459Z,31.66
2022-08-07T16:58:03.545Z,29.23
2022-08-07T17:00:40.497Z,28.67
2022-08-07T17:03:17.902Z,27.96
2022-08-07T17:06:31.107Z,26.42
2022-08-07T17:10:06.620Z,26.86
2022-08-07T17:12:35.911Z,27.82
2022-08-07T17:15:20.217Z,26.84
2022-08-07T17:17:47.596Z,27.44
2022-08-07T17:20:37.691Z,26.47
2022-08-07T17:23:23.020Z,26.74
2022-08-07T17:26:22.752Z,27.22
2022-08-07T17:30:15.638Z,26.47
2022-08-07T17:32:35.382Z,25.02
2022-08-07T17:35:49.963Z,24.85
2022-08-07T17:38:33.376Z,24.69
2022-08-07T17:41:12.455Z,24.17
2022-08-07T17:44:01.538Z,24.42
2022-08-07T17:47:16.910Z,23.59
2022-08-07T17:50:14.365Z,23.23
2022-08-07T17:52:52.677Z,23.40
2022-08-07T17:55:55.601Z,23.69
2022-08-07T17:58:33.590Z,23.32
2022-08-07T18:01:20.963Z,22.93
2022-08-07T18:04:38.020Z,22.90
2022-08-07T18:07:20.219Z,22.54
2022-08-07T18:10:06.250Z,21.90
2022-08-07T18:12:53.146Z,22.61
2022-08-07T18:15:32.571Z,22.02
2022-08-07T18:21:01.433Z,21.96
2022-08-07T18:21:38.269Z,22.21
2022-08-07T18:24:34.014Z,21.83
2022-08-07T18:27:38.724Z,21.67
2022-08-07T18:30:31.645Z,21.22
2022-08-07T18:33:15.975Z,20.67
2022-08-07T18:36:32.954Z,20.26
2022-08-07T18:40:07.757Z,20.25
2022-08-07T18:42:16.369Z,20.17
2022-08-07T18:45:43.596Z,19.96
2022-08-07T18:48:05.952Z,20.13
2022-08-07T18:50:46.756Z,20.62
2022-08-07T18:53:14.067Z,20.29
2022-08-07T18:55:57.571Z,20.71
2022-08-07T18:58:51.099Z,20.50
2022-08-07T19:02:32.725Z,20.74
2022-08-07T19:04:54.899Z,20.53
2022-08-07T19:07:56.886Z,20.64
2022-08-07T19:10:49.902Z,20.65
2022-08-07T19:13:24.488Z,20.92
2022-08-07T19:17:00.513Z,20.19
2022-08-07T19:19:04.890Z,20.44
2022-08-07T19:21:53.504Z,20.54
2022-08-07T19:24:38.393Z,20.47
2022-08-07T19:28:30.838Z,20.43
2022-08-07T19:31:02.152Z,20.24
2022-08-07T19:32:54.259Z,20.32
2022-08-07T19:35:28.422Z,20.24
2022-08-07T19:38:04.317Z,20.54
2022-08-07T19:40:49.879Z,20.11
2022-08-07T19:43:49.977Z,20.21
2022-08-07T19:46:12.188Z,19.94
2022-08-07T19:48:53.764Z,20.21
2022-08-07T19:51:50.968Z,20.48
2022-08-07T19:54:33.335Z,20.18
2022-08-07T19:58:01.869Z,20.15
2022-08-07T19:59:54.542Z,20.07
2022-08-07T20:02:32.321Z,19.75
2022-08-07T20:05:00.808Z,19.90
2022-08-07T20:07:47.008Z,19.78
2022-08-07T20:10:35.218Z,19.76
2022-08-07T20:13:33.048Z,19.53
2022-08-07T20:16:02.693Z,19.47
2022-08-07T20:18:33.759Z,19.31
2022-08-07T20:21:21.034Z,19.42
2022-08-07T20:23:54.350Z,19.26
2022-08-07T20:26:29.874Z,18.95
2022-08-07T20:29:10.613Z,19.16
2022-08-07T20:31:48.143Z,19.04
2022-08-07T20:34:34.362Z,18.54
2022-08-07T20:37:06.329Z,19.03
2022-08-07T20:40:02.978Z,19.11
2022-08-07T20:42:24.056Z,19.21
2022-08-07T20:44:52.546Z,19.15
2022-08-07T20:47:25.938Z,19.15
2022-08-07T20:50:13.260Z,18.91
2022-08-07T20:52:51.382Z,19.31
2022-08-07T20:55:23.798Z,18.63
2022-08-07T20:58:03.265Z,18.72
2022-08-07T21:00:46.964Z,18.89
2022-08-07T21:03:23.196Z,18.70
2022-08-07T21:06:25.948Z,18.97
2022-08-07T21:09:14.175Z,18.87
2022-08-07T21:11:50.154Z,18.77
2022-08-07T21:14:32.668Z,18.70
2022-08-07T21:18:01.977Z,18.35
2022-08-07T21:20:05.262Z,18.35
2022-08-07T21:22:44.782Z,18.29
2022-08-07T21:25:17.932Z,18.36
2022-08-07T21:28:10.259Z,18.38
2022-08-07T21:30:57.626Z,18.46
2022-08-07T21:36:40.126Z,18.40
2022-08-07T21:39:48.177Z,18.04
2022-08-07T21:42:42.902Z,18.12
2022-08-07T21:46:08.776Z,17.96
2022-08-07T21:48:27.748Z,17.79
2022-08-07T21:51:05.621Z,17.84
2022-08-07T21:53:37.093Z,17.58
2022-08-07T21:56:37.743Z,17.74
2022-08-07T22:00:02.853Z,17.78
2022-08-07T22:02:52.454Z,17.99
2022-08-07T22:05:45.544Z,17.85
2022-08-07T22:08:10.555Z,17.79
2022-08-07T22:10:38.520Z,18.02
2022-08-07T22:13:13.609Z,18.17
2022-08-07T22:16:44.595Z,18.17
2022-08-07T22:18:38.257Z,18.07
2022-08-07T22:21:16.809Z,18.12
2022-08-07T22:23:53.310Z,18.03
2022-08-07T22:26:24.810Z,18.01
2022-08-07T22:29:13.754Z,18.09
2022-08-07T22:31:59.545Z,18.14
2022-08-07T22:34:35.812Z,18.00
2022-08-07T22:37:16.468Z,17.76
2022-08-07T22:40:04.811Z,17.77
2022-08-07T22:42:34.109Z,17.40
2022-08-07T22:45:10.987Z,17.54
2022-08-07T22:47:57.896Z,17.31
2022-08-07T22:51:20.561Z,17.67
2022-08-07T22:54:07.946Z,17.83
2022-08-07T22:56:57.363Z,17.83
2022-08-07T22:59:41.469Z,17.90
2022-08-07T23:02:22.337Z,17.83
2022-08-07T23:04:57.815Z,17.86
2022-08-07T23:08:07.293Z,17.48
2022-08-07T23:10:56.565Z,17.53
2022-08-07T23:13:48.590Z,16.92
2022-08-07T23:16:55.276Z,17.14
2022-08-07T23:20:21.049Z,17.39
2022-08-07T23:23:13.794Z,17.88
2022-08-07T23:26:11.229Z,17.85
2022-08-07T23:29:02.773Z,17.78
2022-08-07T23:34:21.865Z,17.49
2022-08-07T23:35:19.685Z,17.46
2022-08-07T23:38:08.277Z,17.44
2022-08-07T23:40:56.239Z,17.48
2022-08-07T23:43:51.296Z,17.26
2022-08-07T23:46:43.747Z,17.33
2022-08-07T23:49:51.083Z,17.31
2022-08-07T23:52:58.104Z,17.35
2022-08-07T23:55:53.602Z,17.38
2022-08-07T23:58:36.379Z,17.32
